sensor_id;sensor_type;location;lat;lon;timestamp;P1;durP1;ratioP1;P2;durP2;ratioP2
48849;SDS011;63210;53.370;6.770;2023-12-20T00:02:16;11.32;;;1.80;;
48849;SDS011;63210;53.370;6.770;2023-12-20T00:04:41;14.27;;;2.38;;
48849;SDS011;63210;53.370;6.770;2023-12-20T00:07:07;16.27;;;2.10;;
48849;SDS011;63210;53.370;6.770;2023-12-20T00:09:32;11.48;;;1.85;;
48849;SDS011;63210;53.370;6.770;2023-12-20T00:11:57;17.58;;;2.30;;
48849;SDS011;63210;53.370;6.770;2023-12-20T00:14:22;11.10;;;2.50;;
48849;SDS011;63210;53.370;6.770;2023-12-20T00:16:48;14.70;;;2.50;;
48849;SDS011;63210;53.370;6.770;2023-12-20T00:19:13;13.73;;;2.03;;
48849;SDS011;63210;53.370;6.770;2023-12-20T00:21:38;10.82;;;1.75;;
48849;SDS011;63210;53.370;6.770;2023-12-20T00:24:04;7.75;;;1.80;;
48849;SDS011;63210;53.370;6.770;2023-12-20T00:26:30;14.82;;;2.25;;
48849;SDS011;63210;53.370;6.770;2023-12-20T00:28:55;14.13;;;2.10;;
48849;SDS011;63210;53.370;6.770;2023-12-20T00:31:20;20.08;;;3.95;;
48849;SDS011;63210;53.370;6.770;2023-12-20T00:33:46;12.85;;;2.10;;
48849;SDS011;63210;53.370;6.770;2023-12-20T00:36:12;14.40;;;2.47;;
48849;SDS011;63210;53.370;6.770;2023-12-20T00:38:37;12.10;;;2.28;;
48849;SDS011;63210;53.370;6.770;2023-12-20T00:41:02;12.27;;;2.08;;
48849;SDS011;63210;53.370;6.770;2023-12-20T00:43:28;15.68;;;2.28;;
48849;SDS011;63210;53.370;6.770;2023-12-20T00:45:53;10.20;;;2.03;;
48849;SDS011;63210;53.370;6.770;2023-12-20T00:48:18;16.02;;;2.30;;
48849;SDS011;63210;53.370;6.770;2023-12-20T00:50:44;16.65;;;1.95;;
48849;SDS011;63210;53.370;6.770;2023-12-20T00:53:09;13.35;;;1.77;;
48849;SDS011;63210;53.370;6.770;2023-12-20T00:55:34;13.40;;;2.20;;
48849;SDS011;63210;53.370;6.770;2023-12-20T00:58:00;12.55;;;2.67;;
48849;SDS011;63210;53.370;6.770;2023-12-20T01:00:25;19.27;;;2.58;;
48849;SDS011;63210;53.370;6.770;2023-12-20T01:02:50;7.20;;;1.60;;
48849;SDS011;63210;53.370;6.770;2023-12-20T01:05:18;14.32;;;3.20;;
48849;SDS011;63210;53.370;6.770;2023-12-20T01:07:44;13.23;;;2.05;;
48849;SDS011;63210;53.370;6.770;2023-12-20T01:10:09;11.40;;;2.35;;
48849;SDS011;63210;53.370;6.770;2023-12-20T01:12:35;10.95;;;1.73;;
48849;SDS011;63210;53.370;6.770;2023-12-20T01:15:02;9.70;;;1.95;;
48849;SDS011;63210;53.370;6.770;2023-12-20T01:17:27;10.98;;;1.50;;
48849;SDS011;63210;53.370;6.770;2023-12-20T01:19:53;11.73;;;1.67;;
48849;SDS011;63210;53.370;6.770;2023-12-20T01:22:18;12.60;;;1.90;;
48849;SDS011;63210;53.370;6.770;2023-12-20T01:24:44;15.27;;;3.20;;
48849;SDS011;63210;53.370;6.770;2023-12-20T01:27:09;17.77;;;2.30;;
48849;SDS011;63210;53.370;6.770;2023-12-20T01:29:34;15.70;;;3.40;;
48849;SDS011;63210;53.370;6.770;2023-12-20T01:31:59;19.35;;;2.80;;
48849;SDS011;63210;53.370;6.770;2023-12-20T01:34:25;10.90;;;1.77;;
48849;SDS011;63210;53.370;6.770;2023-12-20T01:36:50;18.25;;;2.15;;
48849;SDS011;63210;53.370;6.770;2023-12-20T01:39:16;17.73;;;3.28;;
48849;SDS011;63210;53.370;6.770;2023-12-20T01:41:42;17.83;;;2.50;;
48849;SDS011;63210;53.370;6.770;2023-12-20T01:44:07;20.85;;;3.45;;
48849;SDS011;63210;53.370;6.770;2023-12-20T01:46:35;17.52;;;2.70;;
48849;SDS011;63210;53.370;6.770;2023-12-20T01:49:00;11.65;;;2.10;;
48849;SDS011;63210;53.370;6.770;2023-12-20T01:51:26;14.48;;;2.70;;
48849;SDS011;63210;53.370;6.770;2023-12-20T01:53:52;17.75;;;2.13;;
48849;SDS011;63210;53.370;6.770;2023-12-20T01:56:19;12.05;;;2.60;;
48849;SDS011;63210;53.370;6.770;2023-12-20T01:58:45;19.35;;;2.40;;
48849;SDS011;63210;53.370;6.770;2023-12-20T02:01:11;23.02;;;2.80;;
48849;SDS011;63210;53.370;6.770;2023-12-20T02:03:37;18.85;;;2.40;;
48849;SDS011;63210;53.370;6.770;2023-12-20T02:06:03;15.35;;;2.30;;
48849;SDS011;63210;53.370;6.770;2023-12-20T02:08:28;13.85;;;3.25;;
48849;SDS011;63210;53.370;6.770;2023-12-20T02:10:54;15.73;;;2.60;;
48849;SDS011;63210;53.370;6.770;2023-12-20T02:13:19;19.80;;;2.88;;
48849;SDS011;63210;53.370;6.770;2023-12-20T02:15:45;21.35;;;2.78;;
48849;SDS011;63210;53.370;6.770;2023-12-20T02:18:10;16.30;;;2.33;;
48849;SDS011;63210;53.370;6.770;2023-12-20T02:20:35;11.45;;;1.83;;
48849;SDS011;63210;53.370;6.770;2023-12-20T02:23:01;14.88;;;2.40;;
48849;SDS011;63210;53.370;6.770;2023-12-20T02:25:26;16.83;;;3.15;;
48849;SDS011;63210;53.370;6.770;2023-12-20T02:27:51;14.27;;;2.33;;
48849;SDS011;63210;53.370;6.770;2023-12-20T02:30:17;20.42;;;2.80;;
48849;SDS011;63210;53.370;6.770;2023-12-20T02:32:42;17.73;;;3.55;;
48849;SDS011;63210;53.370;6.770;2023-12-20T02:35:07;20.98;;;3.97;;
48849;SDS011;63210;53.370;6.770;2023-12-20T02:37:33;30.88;;;4.05;;
48849;SDS011;63210;53.370;6.770;2023-12-20T02:39:59;18.42;;;3.08;;
48849;SDS011;63210;53.370;6.770;2023-12-20T02:42:24;19.52;;;3.40;;
48849;SDS011;63210;53.370;6.770;2023-12-20T02:44:50;28.15;;;4.13;;
48849;SDS011;63210;53.370;6.770;2023-12-20T02:47:15;20.63;;;2.95;;
48849;SDS011;63210;53.370;6.770;2023-12-20T02:49:41;22.73;;;2.88;;
48849;SDS011;63210;53.370;6.770;2023-12-20T02:52:06;21.60;;;2.90;;
48849;SDS011;63210;53.370;6.770;2023-12-20T02:54:35;19.67;;;2.58;;
48849;SDS011;63210;53.370;6.770;2023-12-20T02:57:00;18.58;;;2.78;;
48849;SDS011;63210;53.370;6.770;2023-12-20T02:59:25;24.23;;;3.85;;
48849;SDS011;63210;53.370;6.770;2023-12-20T03:01:51;24.52;;;2.92;;
48849;SDS011;63210;53.370;6.770;2023-12-20T03:04:19;25.98;;;2.97;;
48849;SDS011;63210;53.370;6.770;2023-12-20T03:06:48;15.90;;;3.90;;
48849;SDS011;63210;53.370;6.770;2023-12-20T03:09:16;23.48;;;4.25;;
48849;SDS011;63210;53.370;6.770;2023-12-20T03:11:42;19.50;;;4.05;;
48849;SDS011;63210;53.370;6.770;2023-12-20T03:14:08;23.48;;;3.58;;
48849;SDS011;63210;53.370;6.770;2023-12-20T03:16:33;17.77;;;3.45;;
48849;SDS011;63210;53.370;6.770;2023-12-20T03:18:58;20.58;;;2.75;;
48849;SDS011;63210;53.370;6.770;2023-12-20T03:21:24;22.77;;;2.55;;
48849;SDS011;63210;53.370;6.770;2023-12-20T03:23:49;24.92;;;2.83;;
48849;SDS011;63210;53.370;6.770;2023-12-20T03:26:14;28.05;;;3.58;;
48849;SDS011;63210;53.370;6.770;2023-12-20T03:28:40;20.02;;;2.72;;
48849;SDS011;63210;53.370;6.770;2023-12-20T03:31:05;30.92;;;3.85;;
48849;SDS011;63210;53.370;6.770;2023-12-20T03:33:30;26.20;;;4.10;;
48849;SDS011;63210;53.370;6.770;2023-12-20T03:35:56;23.70;;;5.82;;
48849;SDS011;63210;53.370;6.770;2023-12-20T03:38:21;20.42;;;3.80;;
48849;SDS011;63210;53.370;6.770;2023-12-20T03:40:50;14.63;;;2.85;;
48849;SDS011;63210;53.370;6.770;2023-12-20T03:43:15;31.10;;;4.97;;
48849;SDS011;63210;53.370;6.770;2023-12-20T03:45:41;41.30;;;6.40;;
48849;SDS011;63210;53.370;6.770;2023-12-20T03:48:07;20.45;;;3.08;;
48849;SDS011;63210;53.370;6.770;2023-12-20T03:50:32;19.98;;;3.05;;
48849;SDS011;63210;53.370;6.770;2023-12-20T03:52:57;15.93;;;3.45;;
48849;SDS011;63210;53.370;6.770;2023-12-20T03:55:22;20.05;;;2.70;;
48849;SDS011;63210;53.370;6.770;2023-12-20T03:57:48;15.43;;;2.83;;
48849;SDS011;63210;53.370;6.770;2023-12-20T04:00:13;12.32;;;2.63;;
48849;SDS011;63210;53.370;6.770;2023-12-20T04:02:39;12.55;;;2.65;;
48849;SDS011;63210;53.370;6.770;2023-12-20T04:05:05;13.73;;;3.25;;
48849;SDS011;63210;53.370;6.770;2023-12-20T04:07:30;12.82;;;2.35;;
48849;SDS011;63210;53.370;6.770;2023-12-20T04:09:56;13.00;;;2.15;;
48849;SDS011;63210;53.370;6.770;2023-12-20T04:12:21;19.58;;;3.22;;
48849;SDS011;63210;53.370;6.770;2023-12-20T04:14:46;18.55;;;3.47;;
48849;SDS011;63210;53.370;6.770;2023-12-20T04:17:11;18.23;;;2.93;;
48849;SDS011;63210;53.370;6.770;2023-12-20T04:19:38;25.15;;;3.80;;
48849;SDS011;63210;53.370;6.770;2023-12-20T04:22:04;25.70;;;3.22;;
48849;SDS011;63210;53.370;6.770;2023-12-20T04:24:29;25.23;;;4.20;;
48849;SDS011;63210;53.370;6.770;2023-12-20T04:26:54;26.02;;;4.03;;
48849;SDS011;63210;53.370;6.770;2023-12-20T04:29:20;20.05;;;3.70;;
48849;SDS011;63210;53.370;6.770;2023-12-20T04:31:45;23.67;;;4.85;;
48849;SDS011;63210;53.370;6.770;2023-12-20T04:34:11;15.48;;;3.35;;
48849;SDS011;63210;53.370;6.770;2023-12-20T04:36:36;37.50;;;5.05;;
48849;SDS011;63210;53.370;6.770;2023-12-20T04:39:01;18.90;;;3.17;;
48849;SDS011;63210;53.370;6.770;2023-12-20T04:41:28;17.90;;;2.95;;
48849;SDS011;63210;53.370;6.770;2023-12-20T04:43:53;28.92;;;4.45;;
48849;SDS011;63210;53.370;6.770;2023-12-20T04:46:18;26.15;;;3.80;;
48849;SDS011;63210;53.370;6.770;2023-12-20T04:48:44;28.70;;;3.28;;
48849;SDS011;63210;53.370;6.770;2023-12-20T04:51:09;24.55;;;4.15;;
48849;SDS011;63210;53.370;6.770;2023-12-20T04:53:34;24.75;;;3.60;;
48849;SDS011;63210;53.370;6.770;2023-12-20T04:55:59;19.92;;;3.80;;
48849;SDS011;63210;53.370;6.770;2023-12-20T04:58:25;26.33;;;3.40;;
48849;SDS011;63210;53.370;6.770;2023-12-20T05:00:50;23.48;;;3.63;;
48849;SDS011;63210;53.370;6.770;2023-12-20T05:03:15;19.10;;;2.80;;
48849;SDS011;63210;53.370;6.770;2023-12-20T05:05:41;32.65;;;4.25;;
48849;SDS011;63210;53.370;6.770;2023-12-20T05:08:06;18.83;;;3.80;;
48849;SDS011;63210;53.370;6.770;2023-12-20T05:10:31;26.73;;;3.53;;
48849;SDS011;63210;53.370;6.770;2023-12-20T05:12:56;28.43;;;3.40;;
48849;SDS011;63210;53.370;6.770;2023-12-20T05:15:22;20.40;;;2.80;;
48849;SDS011;63210;53.370;6.770;2023-12-20T05:17:47;16.38;;;2.95;;
48849;SDS011;63210;53.370;6.770;2023-12-20T05:20:15;24.98;;;4.40;;
48849;SDS011;63210;53.370;6.770;2023-12-20T05:22:41;27.67;;;4.18;;
48849;SDS011;63210;53.370;6.770;2023-12-20T05:25:06;20.25;;;3.20;;
48849;SDS011;63210;53.370;6.770;2023-12-20T05:27:31;24.00;;;3.33;;
48849;SDS011;63210;53.370;6.770;2023-12-20T05:29:57;31.35;;;4.28;;
48849;SDS011;63210;53.370;6.770;2023-12-20T05:32:23;22.30;;;3.97;;
48849;SDS011;63210;53.370;6.770;2023-12-20T05:34:48;22.30;;;3.70;;
48849;SDS011;63210;53.370;6.770;2023-12-20T05:37:13;20.48;;;3.85;;
48849;SDS011;63210;53.370;6.770;2023-12-20T05:39:38;19.30;;;4.00;;
48849;SDS011;63210;53.370;6.770;2023-12-20T05:42:04;21.52;;;4.07;;
48849;SDS011;63210;53.370;6.770;2023-12-20T05:44:29;17.73;;;4.47;;
48849;SDS011;63210;53.370;6.770;2023-12-20T05:46:54;26.98;;;4.13;;
48849;SDS011;63210;53.370;6.770;2023-12-20T05:49:29;20.98;;;3.67;;
48849;SDS011;63210;53.370;6.770;2023-12-20T05:51:54;27.25;;;4.07;;
48849;SDS011;63210;53.370;6.770;2023-12-20T05:54:19;25.83;;;3.28;;
48849;SDS011;63210;53.370;6.770;2023-12-20T05:56:47;28.85;;;4.43;;
48849;SDS011;63210;53.370;6.770;2023-12-20T05:59:12;21.13;;;3.55;;
48849;SDS011;63210;53.370;6.770;2023-12-20T06:01:38;22.25;;;3.58;;
48849;SDS011;63210;53.370;6.770;2023-12-20T06:04:03;32.60;;;3.67;;
48849;SDS011;63210;53.370;6.770;2023-12-20T06:06:29;16.17;;;3.63;;
48849;SDS011;63210;53.370;6.770;2023-12-20T06:08:54;38.55;;;6.93;;
48849;SDS011;63210;53.370;6.770;2023-12-20T06:11:20;26.48;;;5.18;;
48849;SDS011;63210;53.370;6.770;2023-12-20T06:13:45;31.90;;;3.50;;
48849;SDS011;63210;53.370;6.770;2023-12-20T06:16:10;32.13;;;3.95;;
48849;SDS011;63210;53.370;6.770;2023-12-20T06:18:35;26.57;;;3.63;;
48849;SDS011;63210;53.370;6.770;2023-12-20T06:21:02;31.23;;;4.70;;
48849;SDS011;63210;53.370;6.770;2023-12-20T06:23:27;31.15;;;4.93;;
48849;SDS011;63210;53.370;6.770;2023-12-20T06:25:53;24.33;;;4.90;;
48849;SDS011;63210;53.370;6.770;2023-12-20T06:28:18;30.77;;;3.70;;
48849;SDS011;63210;53.370;6.770;2023-12-20T06:30:44;54.00;;;15.57;;
48849;SDS011;63210;53.370;6.770;2023-12-20T06:33:09;66.25;;;24.25;;
48849;SDS011;63210;53.370;6.770;2023-12-20T06:35:45;36.25;;;11.80;;
48849;SDS011;63210;53.370;6.770;2023-12-20T06:38:23;34.92;;;11.75;;
48849;SDS011;63210;53.370;6.770;2023-12-20T06:40:55;29.83;;;8.15;;
48849;SDS011;63210;53.370;6.770;2023-12-20T06:43:25;24.83;;;3.70;;
48849;SDS011;63210;53.370;6.770;2023-12-20T06:45:56;27.20;;;4.13;;
48849;SDS011;63210;53.370;6.770;2023-12-20T06:48:21;25.83;;;5.22;;
48849;SDS011;63210;53.370;6.770;2023-12-20T06:50:46;22.92;;;7.75;;
48849;SDS011;63210;53.370;6.770;2023-12-20T06:53:12;23.42;;;5.07;;
48849;SDS011;63210;53.370;6.770;2023-12-20T06:55:37;19.27;;;4.25;;
48849;SDS011;63210;53.370;6.770;2023-12-20T06:58:02;29.70;;;5.40;;
48849;SDS011;63210;53.370;6.770;2023-12-20T07:00:28;24.33;;;5.05;;
48849;SDS011;63210;53.370;6.770;2023-12-20T07:02:54;31.25;;;7.82;;
48849;SDS011;63210;53.370;6.770;2023-12-20T07:05:19;29.80;;;5.63;;
48849;SDS011;63210;53.370;6.770;2023-12-20T07:07:45;26.48;;;6.55;;
48849;SDS011;63210;53.370;6.770;2023-12-20T07:10:11;31.13;;;6.22;;
48849;SDS011;63210;53.370;6.770;2023-12-20T07:12:36;27.98;;;4.43;;
48849;SDS011;63210;53.370;6.770;2023-12-20T07:15:02;18.67;;;2.88;;
48849;SDS011;63210;53.370;6.770;2023-12-20T07:17:27;20.92;;;4.35;;
48849;SDS011;63210;53.370;6.770;2023-12-20T07:19:52;17.45;;;3.88;;
48849;SDS011;63210;53.370;6.770;2023-12-20T07:22:18;154.70;;;56.83;;
48849;SDS011;63210;53.370;6.770;2023-12-20T07:24:43;141.77;;;64.93;;
48849;SDS011;63210;53.370;6.770;2023-12-20T07:27:09;30.45;;;9.30;;
48849;SDS011;63210;53.370;6.770;2023-12-20T07:29:34;28.02;;;7.20;;
48849;SDS011;63210;53.370;6.770;2023-12-20T07:32:03;27.02;;;5.03;;
48849;SDS011;63210;53.370;6.770;2023-12-20T07:34:28;17.98;;;3.35;;
48849;SDS011;63210;53.370;6.770;2023-12-20T07:36:53;27.38;;;6.57;;
48849;SDS011;63210;53.370;6.770;2023-12-20T07:39:19;23.08;;;5.85;;
48849;SDS011;63210;53.370;6.770;2023-12-20T07:41:44;26.50;;;5.07;;
48849;SDS011;63210;53.370;6.770;2023-12-20T07:44:10;24.83;;;4.13;;
48849;SDS011;63210;53.370;6.770;2023-12-20T07:46:38;23.83;;;6.05;;
48849;SDS011;63210;53.370;6.770;2023-12-20T07:49:04;21.85;;;5.78;;
48849;SDS011;63210;53.370;6.770;2023-12-20T07:51:30;28.17;;;5.50;;
48849;SDS011;63210;53.370;6.770;2023-12-20T07:53:55;27.33;;;6.17;;
48849;SDS011;63210;53.370;6.770;2023-12-20T07:56:20;19.58;;;4.07;;
48849;SDS011;63210;53.370;6.770;2023-12-20T07:58:46;30.83;;;4.38;;
48849;SDS011;63210;53.370;6.770;2023-12-20T08:01:11;34.75;;;5.13;;
48849;SDS011;63210;53.370;6.770;2023-12-20T08:03:38;24.80;;;4.50;;
48849;SDS011;63210;53.370;6.770;2023-12-20T08:06:07;21.00;;;4.78;;
48849;SDS011;63210;53.370;6.770;2023-12-20T08:08:32;30.27;;;4.75;;
48849;SDS011;63210;53.370;6.770;2023-12-20T08:10:57;20.77;;;4.07;;
48849;SDS011;63210;53.370;6.770;2023-12-20T08:13:25;38.15;;;5.10;;
48849;SDS011;63210;53.370;6.770;2023-12-20T08:15:51;23.92;;;4.60;;
48849;SDS011;63210;53.370;6.770;2023-12-20T08:18:16;24.55;;;4.25;;
48849;SDS011;63210;53.370;6.770;2023-12-20T08:20:41;27.85;;;4.50;;
48849;SDS011;63210;53.370;6.770;2023-12-20T08:23:10;14.20;;;2.42;;
48849;SDS011;63210;53.370;6.770;2023-12-20T08:25:35;12.50;;;1.80;;
48849;SDS011;63210;53.370;6.770;2023-12-20T08:28:01;7.95;;;1.98;;
48849;SDS011;63210;53.370;6.770;2023-12-20T08:30:28;17.00;;;2.55;;
48849;SDS011;63210;53.370;6.770;2023-12-20T08:32:56;13.05;;;1.63;;
48849;SDS011;63210;53.370;6.770;2023-12-20T08:35:21;16.95;;;2.40;;
48849;SDS011;63210;53.370;6.770;2023-12-20T08:37:47;14.77;;;2.78;;
48849;SDS011;63210;53.370;6.770;2023-12-20T08:40:12;12.73;;;2.72;;
48849;SDS011;63210;53.370;6.770;2023-12-20T08:42:37;15.27;;;1.88;;
48849;SDS011;63210;53.370;6.770;2023-12-20T08:45:04;11.90;;;3.25;;
48849;SDS011;63210;53.370;6.770;2023-12-20T08:47:29;11.77;;;3.20;;
48849;SDS011;63210;53.370;6.770;2023-12-20T08:49:56;9.23;;;3.60;;
48849;SDS011;63210;53.370;6.770;2023-12-20T08:52:24;8.77;;;1.80;;
48849;SDS011;63210;53.370;6.770;2023-12-20T08:54:50;13.98;;;3.15;;
48849;SDS011;63210;53.370;6.770;2023-12-20T08:57:20;11.75;;;1.75;;
48849;SDS011;63210;53.370;6.770;2023-12-20T08:59:50;14.85;;;2.30;;
48849;SDS011;63210;53.370;6.770;2023-12-20T09:02:15;12.90;;;1.80;;
48849;SDS011;63210;53.370;6.770;2023-12-20T09:04:41;10.68;;;1.70;;
48849;SDS011;63210;53.370;6.770;2023-12-20T09:07:20;10.00;;;1.38;;
48849;SDS011;63210;53.370;6.770;2023-12-20T09:09:50;13.00;;;2.03;;
48849;SDS011;63210;53.370;6.770;2023-12-20T09:12:17;11.13;;;2.00;;
48849;SDS011;63210;53.370;6.770;2023-12-20T09:14:49;13.13;;;1.70;;
48849;SDS011;63210;53.370;6.770;2023-12-20T09:17:15;9.93;;;1.20;;
48849;SDS011;63210;53.370;6.770;2023-12-20T09:19:41;12.82;;;3.08;;
48849;SDS011;63210;53.370;6.770;2023-12-20T09:22:06;9.50;;;2.00;;
48849;SDS011;63210;53.370;6.770;2023-12-20T09:24:35;13.27;;;1.50;;
48849;SDS011;63210;53.370;6.770;2023-12-20T09:27:00;8.68;;;1.75;;
48849;SDS011;63210;53.370;6.770;2023-12-20T09:29:26;9.50;;;1.80;;
48849;SDS011;63210;53.370;6.770;2023-12-20T09:31:51;11.00;;;1.30;;
48849;SDS011;63210;53.370;6.770;2023-12-20T09:34:16;8.90;;;1.48;;
48849;SDS011;63210;53.370;6.770;2023-12-20T09:36:55;12.25;;;1.60;;
48849;SDS011;63210;53.370;6.770;2023-12-20T09:39:26;15.15;;;1.98;;
48849;SDS011;63210;53.370;6.770;2023-12-20T09:42:03;17.63;;;3.47;;
48849;SDS011;63210;53.370;6.770;2023-12-20T09:44:32;19.63;;;2.10;;
48849;SDS011;63210;53.370;6.770;2023-12-20T09:47:06;9.05;;;1.65;;
48849;SDS011;63210;53.370;6.770;2023-12-20T09:49:32;15.77;;;1.95;;
48849;SDS011;63210;53.370;6.770;2023-12-20T09:51:58;12.68;;;2.33;;
48849;SDS011;63210;53.370;6.770;2023-12-20T09:54:25;18.17;;;2.55;;
48849;SDS011;63210;53.370;6.770;2023-12-20T09:56:50;12.35;;;3.22;;
48849;SDS011;63210;53.370;6.770;2023-12-20T09:59:16;8.52;;;1.92;;
48849;SDS011;63210;53.370;6.770;2023-12-20T10:01:41;13.45;;;3.10;;
48849;SDS011;63210;53.370;6.770;2023-12-20T10:04:10;19.17;;;2.05;;
48849;SDS011;63210;53.370;6.770;2023-12-20T10:06:43;15.38;;;3.05;;
48849;SDS011;63210;53.370;6.770;2023-12-20T10:09:09;13.20;;;2.75;;
48849;SDS011;63210;53.370;6.770;2023-12-20T10:11:35;16.15;;;2.47;;
48849;SDS011;63210;53.370;6.770;2023-12-20T10:14:05;19.88;;;2.55;;
48849;SDS011;63210;53.370;6.770;2023-12-20T10:16:33;16.27;;;3.17;;
48849;SDS011;63210;53.370;6.770;2023-12-20T10:19:00;9.57;;;1.90;;
48849;SDS011;63210;53.370;6.770;2023-12-20T10:21:26;11.75;;;1.90;;
48849;SDS011;63210;53.370;6.770;2023-12-20T10:24:00;17.95;;;3.17;;
48849;SDS011;63210;53.370;6.770;2023-12-20T10:26:26;20.80;;;2.88;;
48849;SDS011;63210;53.370;6.770;2023-12-20T10:28:52;19.98;;;3.85;;
48849;SDS011;63210;53.370;6.770;2023-12-20T10:31:31;19.60;;;2.85;;
48849;SDS011;63210;53.370;6.770;2023-12-20T10:33:57;23.13;;;2.60;;
48849;SDS011;63210;53.370;6.770;2023-12-20T10:36:23;16.48;;;2.75;;
48849;SDS011;63210;53.370;6.770;2023-12-20T10:38:48;14.15;;;2.15;;
48849;SDS011;63210;53.370;6.770;2023-12-20T10:54:08;23.77;;;3.20;;
48849;SDS011;63210;53.370;6.770;2023-12-20T10:56:34;26.77;;;5.63;;
48849;SDS011;63210;53.370;6.770;2023-12-20T10:59:01;16.88;;;2.97;;
48849;SDS011;63210;53.370;6.770;2023-12-20T11:01:28;21.25;;;3.95;;
48849;SDS011;63210;53.370;6.770;2023-12-20T11:03:53;20.27;;;3.40;;
48849;SDS011;63210;53.370;6.770;2023-12-20T11:06:26;19.08;;;3.28;;
48849;SDS011;63210;53.370;6.770;2023-12-20T11:11:57;18.45;;;2.55;;
48849;SDS011;63210;53.370;6.770;2023-12-20T11:14:33;24.60;;;2.85;;
48849;SDS011;63210;53.370;6.770;2023-12-20T11:17:09;18.38;;;2.72;;
48849;SDS011;63210;53.370;6.770;2023-12-20T11:19:42;20.20;;;3.88;;
48849;SDS011;63210;53.370;6.770;2023-12-20T11:22:08;26.58;;;3.05;;
48849;SDS011;63210;53.370;6.770;2023-12-20T11:24:33;11.10;;;2.15;;
48849;SDS011;63210;53.370;6.770;2023-12-20T11:26:59;21.25;;;3.63;;
48849;SDS011;63210;53.370;6.770;2023-12-20T11:29:35;24.00;;;5.38;;
48849;SDS011;63210;53.370;6.770;2023-12-20T11:32:03;28.73;;;5.90;;
48849;SDS011;63210;53.370;6.770;2023-12-20T11:34:48;29.00;;;5.50;;
48849;SDS011;63210;53.370;6.770;2023-12-20T11:37:15;21.25;;;3.35;;
48849;SDS011;63210;53.370;6.770;2023-12-20T11:39:40;30.25;;;6.45;;
48849;SDS011;63210;53.370;6.770;2023-12-20T11:42:07;25.85;;;4.63;;
48849;SDS011;63210;53.370;6.770;2023-12-20T11:44:32;24.48;;;5.50;;
48849;SDS011;63210;53.370;6.770;2023-12-20T11:46:58;23.40;;;3.75;;
48849;SDS011;63210;53.370;6.770;2023-12-20T11:49:24;23.60;;;4.63;;
48849;SDS011;63210;53.370;6.770;2023-12-20T11:51:53;29.90;;;3.50;;
48849;SDS011;63210;53.370;6.770;2023-12-20T11:54:18;25.15;;;3.03;;
48849;SDS011;63210;53.370;6.770;2023-12-20T11:56:43;16.15;;;3.58;;
48849;SDS011;63210;53.370;6.770;2023-12-20T11:59:09;19.92;;;3.22;;
48849;SDS011;63210;53.370;6.770;2023-12-20T12:01:38;19.52;;;3.80;;
48849;SDS011;63210;53.370;6.770;2023-12-20T12:04:04;20.65;;;2.80;;
48849;SDS011;63210;53.370;6.770;2023-12-20T12:06:29;33.38;;;4.93;;
48849;SDS011;63210;53.370;6.770;2023-12-20T12:08:55;26.85;;;3.67;;
48849;SDS011;63210;53.370;6.770;2023-12-20T12:11:21;26.50;;;3.65;;
48849;SDS011;63210;53.370;6.770;2023-12-20T12:13:46;25.40;;;4.95;;
48849;SDS011;63210;53.370;6.770;2023-12-20T12:16:11;24.80;;;3.00;;
48849;SDS011;63210;53.370;6.770;2023-12-20T12:18:37;15.77;;;3.05;;
48849;SDS011;63210;53.370;6.770;2023-12-20T12:21:02;31.23;;;3.85;;
48849;SDS011;63210;53.370;6.770;2023-12-20T12:23:27;29.27;;;4.05;;
48849;SDS011;63210;53.370;6.770;2023-12-20T12:25:53;20.20;;;3.30;;
48849;SDS011;63210;53.370;6.770;2023-12-20T12:28:20;25.95;;;3.90;;
48849;SDS011;63210;53.370;6.770;2023-12-20T12:30:58;19.45;;;3.10;;
48849;SDS011;63210;53.370;6.770;2023-12-20T12:33:24;26.98;;;3.83;;
48849;SDS011;63210;53.370;6.770;2023-12-20T12:35:49;15.95;;;3.08;;
48849;SDS011;63210;53.370;6.770;2023-12-20T12:38:15;16.30;;;3.03;;
48849;SDS011;63210;53.370;6.770;2023-12-20T12:40:40;18.15;;;4.32;;
48849;SDS011;63210;53.370;6.770;2023-12-20T12:43:08;13.00;;;2.40;;
48849;SDS011;63210;53.370;6.770;2023-12-20T12:45:33;11.50;;;2.20;;
48849;SDS011;63210;53.370;6.770;2023-12-20T12:47:58;22.10;;;2.67;;
48849;SDS011;63210;53.370;6.770;2023-12-20T12:50:24;12.82;;;1.73;;
48849;SDS011;63210;53.370;6.770;2023-12-20T12:52:49;15.00;;;2.58;;
48849;SDS011;63210;53.370;6.770;2023-12-20T12:55:18;35.88;;;3.05;;
48849;SDS011;63210;53.370;6.770;2023-12-20T12:57:43;9.52;;;2.10;;
48849;SDS011;63210;53.370;6.770;2023-12-20T13:00:11;16.33;;;2.40;;
48849;SDS011;63210;53.370;6.770;2023-12-20T13:02:36;13.55;;;2.28;;
48849;SDS011;63210;53.370;6.770;2023-12-20T13:05:03;16.42;;;2.85;;
48849;SDS011;63210;53.370;6.770;2023-12-20T13:07:29;15.80;;;2.22;;
48849;SDS011;63210;53.370;6.770;2023-12-20T13:09:54;13.38;;;2.03;;
48849;SDS011;63210;53.370;6.770;2023-12-20T13:12:20;12.60;;;2.20;;
48849;SDS011;63210;53.370;6.770;2023-12-20T13:14:46;15.85;;;2.13;;
48849;SDS011;63210;53.370;6.770;2023-12-20T13:17:12;17.48;;;2.55;;
48849;SDS011;63210;53.370;6.770;2023-12-20T13:19:40;20.88;;;6.68;;
48849;SDS011;63210;53.370;6.770;2023-12-20T13:22:05;21.35;;;4.50;;
48849;SDS011;63210;53.370;6.770;2023-12-20T13:24:31;19.77;;;5.55;;
48849;SDS011;63210;53.370;6.770;2023-12-20T13:26:57;20.05;;;6.25;;
48849;SDS011;63210;53.370;6.770;2023-12-20T13:29:23;33.03;;;16.75;;
48849;SDS011;63210;53.370;6.770;2023-12-20T13:31:49;80.93;;;49.47;;
48849;SDS011;63210;53.370;6.770;2023-12-20T13:34:14;32.92;;;19.25;;
48849;SDS011;63210;53.370;6.770;2023-12-20T13:36:42;47.88;;;29.90;;
48849;SDS011;63210;53.370;6.770;2023-12-20T13:39:07;116.18;;;70.57;;
48849;SDS011;63210;53.370;6.770;2023-12-20T13:41:39;51.38;;;30.70;;
48849;SDS011;63210;53.370;6.770;2023-12-20T13:44:04;51.65;;;35.13;;
48849;SDS011;63210;53.370;6.770;2023-12-20T13:46:30;49.05;;;38.53;;
48849;SDS011;63210;53.370;6.770;2023-12-20T13:48:55;24.55;;;12.85;;
48849;SDS011;63210;53.370;6.770;2023-12-20T13:51:20;17.30;;;6.72;;
48849;SDS011;63210;53.370;6.770;2023-12-20T13:53:46;15.75;;;3.63;;
48849;SDS011;63210;53.370;6.770;2023-12-20T13:56:13;17.90;;;5.88;;
48849;SDS011;63210;53.370;6.770;2023-12-20T13:58:38;18.63;;;7.80;;
48849;SDS011;63210;53.370;6.770;2023-12-20T14:01:04;15.57;;;6.20;;
48849;SDS011;63210;53.370;6.770;2023-12-20T14:03:30;13.85;;;4.65;;
48849;SDS011;63210;53.370;6.770;2023-12-20T14:05:56;16.27;;;5.93;;
48849;SDS011;63210;53.370;6.770;2023-12-20T14:08:21;16.83;;;3.10;;
48849;SDS011;63210;53.370;6.770;2023-12-20T14:10:46;16.58;;;4.05;;
48849;SDS011;63210;53.370;6.770;2023-12-20T14:13:12;11.70;;;3.83;;
48849;SDS011;63210;53.370;6.770;2023-12-20T14:15:37;11.90;;;2.88;;
48849;SDS011;63210;53.370;6.770;2023-12-20T14:18:04;11.63;;;2.80;;
48849;SDS011;63210;53.370;6.770;2023-12-20T14:20:31;9.20;;;2.30;;
48849;SDS011;63210;53.370;6.770;2023-12-20T14:22:56;13.30;;;1.60;;
48849;SDS011;63210;53.370;6.770;2023-12-20T14:25:21;9.97;;;1.93;;
48849;SDS011;63210;53.370;6.770;2023-12-20T14:27:48;8.35;;;1.98;;
48849;SDS011;63210;53.370;6.770;2023-12-20T14:30:13;9.20;;;1.65;;
48849;SDS011;63210;53.370;6.770;2023-12-20T14:32:39;11.25;;;3.17;;
48849;SDS011;63210;53.370;6.770;2023-12-20T14:35:08;12.02;;;1.73;;
48849;SDS011;63210;53.370;6.770;2023-12-20T14:37:33;9.23;;;1.80;;
48849;SDS011;63210;53.370;6.770;2023-12-20T14:39:59;6.68;;;1.33;;
48849;SDS011;63210;53.370;6.770;2023-12-20T14:42:24;9.07;;;1.50;;
48849;SDS011;63210;53.370;6.770;2023-12-20T14:44:49;9.60;;;1.73;;
48849;SDS011;63210;53.370;6.770;2023-12-20T14:47:17;7.18;;;1.30;;